createdAt,value
2022-10-02T00:00:25.029Z,25.40
2022-10-02T00:02:35.783Z,25.40
2022-10-02T00:04:50.613Z,25.40
2022-10-02T00:07:02.857Z,25.40
2022-10-02T00:09:15.568Z,25.40
2022-10-02T00:11:26.285Z,25.40
2022-10-02T00:13:40.478Z,25.50
2022-10-02T00:15:47.967Z,25.50
2022-10-02T00:17:58.343Z,25.50
2022-10-02T00:20:15.951Z,25.50
2022-10-02T00:22:35.521Z,25.50
2022-10-02T00:24:46.596Z,25.60
2022-10-02T00:27:01.213Z,25.60
2022-10-02T00:29:21.335Z,25.70
2022-10-02T00:31:40.825Z,25.80
2022-10-02T00:34:00.233Z,25.80
2022-10-02T00:36:21.442Z,25.90
2022-10-02T00:38:44.744Z,25.90
2022-10-02T00:41:17.679Z,26.00
2022-10-02T00:43:34.129Z,26.00
2022-10-02T00:46:06.300Z,26.00
2022-10-02T00:48:36.159Z,26.10
2022-10-02T00:50:52.198Z,26.00
2022-10-02T00:53:12.080Z,26.10
2022-10-02T00:55:43.435Z,26.00
2022-10-02T00:58:10.217Z,26.00
2022-10-02T01:00:20.267Z,26.00
2022-10-02T01:02:47.415Z,26.10
2022-10-02T01:04:54.392Z,26.10
2022-10-02T01:07:01.830Z,26.10
2022-10-02T01:09:10.650Z,26.10
2022-10-02T01:11:17.429Z,26.20
2022-10-02T01:13:24.844Z,26.20
2022-10-02T01:15:35.113Z,26.20
2022-10-02T01:17:42.047Z,26.20
2022-10-02T01:19:48.917Z,26.30
2022-10-02T01:22:02.448Z,26.30
2022-10-02T01:24:17.408Z,26.30
2022-10-02T01:26:26.084Z,26.30
2022-10-02T01:28:33.871Z,26.30
2022-10-02T01:30:44.125Z,26.30
2022-10-02T01:32:55.043Z,26.30
2022-10-02T01:35:02.941Z,26.40
2022-10-02T01:37:10.277Z,26.30
2022-10-02T01:39:17.715Z,26.30
2022-10-02T01:41:26.544Z,26.30
2022-10-02T01:43:36.071Z,26.30
2022-10-02T01:46:10.746Z,26.30
2022-10-02T01:48:24.943Z,26.30
2022-10-02T01:50:36.120Z,26.30
2022-10-02T01:52:52.824Z,26.30
2022-10-02T01:55:13.222Z,26.40
2022-10-02T01:57:35.816Z,26.40
2022-10-02T01:59:54.202Z,26.40
2022-10-02T02:02:14.249Z,26.40
2022-10-02T02:04:26.998Z,26.40
2022-10-02T02:06:41.303Z,26.50
2022-10-02T02:09:01.733Z,26.50
2022-10-02T02:11:15.575Z,26.50
2022-10-02T02:13:29.363Z,26.50
2022-10-02T02:15:43.974Z,26.50
2022-10-02T02:17:55.502Z,26.50
2022-10-02T02:20:05.809Z,26.50
2022-10-02T02:22:19.234Z,26.60
2022-10-02T02:24:29.694Z,26.60
2022-10-02T02:26:38.566Z,26.60
2022-10-02T02:28:52.001Z,26.70
2022-10-02T02:31:00.607Z,26.70
2022-10-02T02:33:12.141Z,26.70
2022-10-02T02:35:21.525Z,26.80
2022-10-02T02:37:30.997Z,26.90
2022-10-02T02:39:46.998Z,26.90
2022-10-02T02:41:58.532Z,27.20
2022-10-02T02:44:10.177Z,27.30
2022-10-02T02:46:18.987Z,27.40
2022-10-02T02:48:29.038Z,27.50
2022-10-02T02:50:39.809Z,27.50
2022-10-02T02:52:52.513Z,27.50
2022-10-02T02:55:06.505Z,27.40
2022-10-02T02:57:16.092Z,27.30
2022-10-02T02:59:28.907Z,27.30
2022-10-02T03:01:36.036Z,27.30
2022-10-02T03:03:43.425Z,27.30
2022-10-02T03:05:56.493Z,27.20
2022-10-02T03:08:07.054Z,27.30
2022-10-02T03:10:19.970Z,27.30
2022-10-02T03:12:39.132Z,27.40
2022-10-02T03:15:00.548Z,27.50
2022-10-02T03:17:19.044Z,27.60
2022-10-02T03:19:39.903Z,27.80
2022-10-02T03:21:57.369Z,27.90
2022-10-02T03:24:11.872Z,28.00
2022-10-02T03:26:22.537Z,28.00
2022-10-02T03:28:55.082Z,28.00
2022-10-02T03:31:04.391Z,28.00
2022-10-02T03:33:14.032Z,28.10
2022-10-02T03:35:21.928Z,28.20
2022-10-02T03:37:30.739Z,28.20
2022-10-02T03:39:37.731Z,28.30
2022-10-02T03:41:44.654Z,28.40
2022-10-02T03:43:51.734Z,28.50
2022-10-02T03:45:58.807Z,28.70
2022-10-02T03:48:08.026Z,28.80
2022-10-02T03:50:16.862Z,28.80
2022-10-02T03:52:25.922Z,28.90
2022-10-02T03:54:38.348Z,29.00
2022-10-02T03:56:54.645Z,29.10
2022-10-02T03:59:05.610Z,29.10
2022-10-02T04:01:20.142Z,29.20
2022-10-02T04:03:32.169Z,29.30
2022-10-02T04:05:44.971Z,29.30
2022-10-02T04:07:55.108Z,29.40
2022-10-02T04:10:18.031Z,29.40
2022-10-02T04:12:30.179Z,29.60
2022-10-02T04:14:41.350Z,29.50
2022-10-02T04:16:54.063Z,29.50
2022-10-02T04:19:07.177Z,29.40
2022-10-02T04:21:18.667Z,29.20
2022-10-02T04:23:26.759Z,29.10
2022-10-02T04:25:37.579Z,28.90
2022-10-02T04:27:46.940Z,28.80
2022-10-02T04:32:27.471Z,28.70
2022-10-02T04:34:34.362Z,28.70
2022-10-02T04:36:51.795Z,28.70
2022-10-02T04:39:21.870Z,28.70
2022-10-02T04:41:50.938Z,28.70
2022-10-02T04:44:07.707Z,28.70
2022-10-02T04:46:25.486Z,28.70
2022-10-02T04:49:02.159Z,28.70
2022-10-02T04:51:38.574Z,28.70
2022-10-02T04:53:58.713Z,28.70
2022-10-02T04:56:23.351Z,28.70
2022-10-02T04:58:52.548Z,28.70
2022-10-02T05:01:10.122Z,28.70
2022-10-02T05:03:32.257Z,28.80
2022-10-02T05:05:59.410Z,28.80
2022-10-02T05:08:29.071Z,28.80
2022-10-02T05:10:52.441Z,28.80
2022-10-02T05:13:08.931Z,28.80
2022-10-02T05:15:31.835Z,28.90
2022-10-02T05:17:55.041Z,28.90
2022-10-02T05:20:20.607Z,28.90
2022-10-02T05:22:54.248Z,28.90
2022-10-02T05:25:31.023Z,28.90
2022-10-02T05:28:10.697Z,28.90
2022-10-02T05:30:19.690Z,29.00
2022-10-02T05:32:55.914Z,29.00
2022-10-02T05:35:16.760Z,29.00
2022-10-02T05:37:37.354Z,28.90
2022-10-02T05:39:53.493Z,28.80
2022-10-02T05:42:07.279Z,28.80
2022-10-02T05:44:19.683Z,28.80
2022-10-02T05:46:28.790Z,29.00
2022-10-02T05:48:41.418Z,29.00
2022-10-02T05:50:54.439Z,29.10
2022-10-02T05:53:04.629Z,29.20
2022-10-02T05:55:22.039Z,29.30
2022-10-02T05:57:34.364Z,29.30
2022-10-02T05:59:47.948Z,29.20
2022-10-02T06:01:57.169Z,29.10
2022-10-02T06:04:11.051Z,29.00
2022-10-02T06:06:23.994Z,28.90
2022-10-02T06:08:36.761Z,28.70
2022-10-02T06:10:51.527Z,28.70
2022-10-02T06:13:01.809Z,28.60
2022-10-02T06:15:19.418Z,28.50
2022-10-02T06:17:30.521Z,28.50
2022-10-02T06:19:42.604Z,28.50
2022-10-02T06:21:54.125Z,28.40
2022-10-02T06:24:02.835Z,28.30
2022-10-02T06:26:15.473Z,28.20
2022-10-02T06:28:26.350Z,28.20
2022-10-02T06:30:36.156Z,28.20
2022-10-02T06:32:49.238Z,28.20
2022-10-02T06:34:56.303Z,28.10
2022-10-02T06:37:39.039Z,28.10
2022-10-02T06:40:15.098Z,28.00
2022-10-02T06:42:40.622Z,27.90
2022-10-02T06:44:55.876Z,27.90
2022-10-02T06:47:18.683Z,27.70
2022-10-02T06:49:34.554Z,27.60
2022-10-02T06:51:53.780Z,27.40
2022-10-02T06:54:20.300Z,27.20
2022-10-02T06:56:43.141Z,27.10
2022-10-02T06:59:06.215Z,26.90
2022-10-02T07:01:22.563Z,26.80
2022-10-02T07:04:07.475Z,26.60
2022-10-02T07:06:26.571Z,26.50
2022-10-02T07:08:47.185Z,26.40
2022-10-02T07:11:04.350Z,26.30
2022-10-02T07:13:25.823Z,26.30
2022-10-02T07:15:55.601Z,26.20
2022-10-02T07:18:11.463Z,26.20
2022-10-02T07:20:43.020Z,26.10
2022-10-02T07:23:07.681Z,26.00
2022-10-02T07:25:51.651Z,26.00
2022-10-02T07:28:05.266Z,25.90
2022-10-02T07:30:15.981Z,25.90
2022-10-02T07:32:41.244Z,26.00
2022-10-02T07:35:04.051Z,26.00
2022-10-02T07:37:25.419Z,26.00
2022-10-02T07:39:46.726Z,26.00
2022-10-02T07:42:29.171Z,25.90
2022-10-02T07:44:54.112Z,25.90
2022-10-02T07:47:14.424Z,25.90
2022-10-02T07:49:37.732Z,25.90
2022-10-02T07:51:51.161Z,26.00
2022-10-02T07:54:05.426Z,26.10
2022-10-02T07:56:20.994Z,26.10
2022-10-02T07:58:38.031Z,26.10
2022-10-02T08:00:51.259Z,26.10
2022-10-02T08:03:03.184Z,26.00
2022-10-02T08:05:17.010Z,26.00
2022-10-02T08:07:24.184Z,25.90
2022-10-02T08:09:38.336Z,25.90
2022-10-02T08:11:49.924Z,25.90
2022-10-02T08:14:03.606Z,25.80
2022-10-02T08:16:14.595Z,25.90
2022-10-02T08:18:34.571Z,25.90
2022-10-02T08:20:47.467Z,26.00
2022-10-02T08:22:59.000Z,26.00
2022-10-02T08:25:13.298Z,26.10
2022-10-02T08:27:24.321Z,26.10
2022-10-02T08:29:41.281Z,26.10
2022-10-02T08:31:49.022Z,26.10
2022-10-02T08:33:56.567Z,26.10
2022-10-02T08:36:19.447Z,26.10
2022-10-02T08:38:39.705Z,26.10
2022-10-02T08:41:12.638Z,26.10
2022-10-02T08:44:09.060Z,26.10
2022-10-02T08:46:43.853Z,26.10
2022-10-02T08:49:25.595Z,26.10
2022-10-02T08:52:10.727Z,26.20
2022-10-02T08:54:55.019Z,26.20
2022-10-02T08:57:28.210Z,26.20
2022-10-02T09:00:02.950Z,26.20
2022-10-02T09:02:59.015Z,26.20
2022-10-02T09:05:34.357Z,26.10
2022-10-02T09:08:12.164Z,26.10
2022-10-02T09:11:04.709Z,26.10
2022-10-02T09:13:29.239Z,26.30
2022-10-02T09:15:48.710Z,26.20
2022-10-02T09:18:14.886Z,26.30
2022-10-02T09:20:57.557Z,26.30
2022-10-02T09:23:36.119Z,26.30
2022-10-02T09:25:59.621Z,26.40
2022-10-02T09:28:41.629Z,26.40
2022-10-02T09:31:26.959Z,26.40
2022-10-02T09:34:03.628Z,26.40
2022-10-02T09:36:42.564Z,26.30
2022-10-02T09:39:22.351Z,26.30
2022-10-02T09:42:00.261Z,26.30
2022-10-02T09:44:40.458Z,26.30
2022-10-02T09:47:13.735Z,26.30
2022-10-02T09:50:02.917Z,26.30
2022-10-02T09:52:52.987Z,26.30
2022-10-02T09:55:38.483Z,26.20
2022-10-02T09:58:28.687Z,26.20
2022-10-02T10:01:10.220Z,26.20
2022-10-02T10:03:47.297Z,26.10
2022-10-02T10:06:35.735Z,26.10
2022-10-02T10:09:04.377Z,26.10
2022-10-02T10:11:59.226Z,26.10
2022-10-02T10:14:59.103Z,26.10
2022-10-02T10:17:40.272Z,26.20
2022-10-02T10:20:24.061Z,26.10
2022-10-02T10:23:01.100Z,26.20
2022-10-02T10:25:32.396Z,26.20
2022-10-02T10:28:16.831Z,26.20
2022-10-02T10:30:48.653Z,26.20
2022-10-02T10:33:25.328Z,26.20
2022-10-02T10:36:30.979Z,26.20
2022-10-02T10:38:53.367Z,26.20
2022-10-02T10:41:15.654Z,26.20
2022-10-02T10:43:56.217Z,26.20
2022-10-02T10:46:18.850Z,26.20
2022-10-02T10:48:49.932Z,26.10
2022-10-02T10:51:05.788Z,26.10
2022-10-02T10:53:30.736Z,26.20
2022-10-02T10:55:53.738Z,26.10
2022-10-02T10:58:22.328Z,26.10
2022-10-02T11:00:34.008Z,26.10
2022-10-02T11:02:55.577Z,26.10
2022-10-02T11:05:37.628Z,26.10
2022-10-02T11:08:07.233Z,26.10
2022-10-02T11:10:40.016Z,26.00
2022-10-02T11:13:25.291Z,26.00
2022-10-02T11:16:00.299Z,26.00
2022-10-02T11:18:35.821Z,26.00
2022-10-02T11:21:05.666Z,26.00
2022-10-02T11:23:44.968Z,26.00
2022-10-02T11:26:23.235Z,26.00
2022-10-02T11:29:08.761Z,26.00
2022-10-02T11:31:28.302Z,26.00
2022-10-02T11:34:05.215Z,26.00
2022-10-02T11:36:43.573Z,26.10
2022-10-02T11:39:29.306Z,26.00
2022-10-02T11:41:56.361Z,26.00
2022-10-02T11:44:29.961Z,26.00
2022-10-02T11:47:03.199Z,26.10
2022-10-02T11:49:46.388Z,26.10
2022-10-02T11:52:24.694Z,26.10
2022-10-02T11:54:47.074Z,26.10
2022-10-02T11:57:09.614Z,26.10
2022-10-02T11:59:31.882Z,26.10
2022-10-02T12:01:46.367Z,26.10
2022-10-02T12:04:05.134Z,26.00
2022-10-02T12:06:24.558Z,26.00
2022-10-02T12:08:49.580Z,25.90
2022-10-02T12:11:02.334Z,25.90
2022-10-02T12:13:43.115Z,26.00
2022-10-02T12:15:57.251Z,25.90
2022-10-02T12:18:24.964Z,25.90
2022-10-02T12:21:02.563Z,25.90
2022-10-02T12:23:36.927Z,26.00
2022-10-02T12:26:13.498Z,25.90
2022-10-02T12:28:26.738Z,25.90
2022-10-02T12:30:41.769Z,25.90
2022-10-02T12:33:08.425Z,25.90
2022-10-02T12:35:32.503Z,25.90
2022-10-02T12:37:49.771Z,25.90
2022-10-02T12:40:05.349Z,25.90
2022-10-02T12:42:43.763Z,25.90
2022-10-02T12:45:29.164Z,25.90
2022-10-02T12:48:13.034Z,25.90
2022-10-02T12:50:31.068Z,25.90
2022-10-02T12:53:09.945Z,25.80
2022-10-02T12:55:51.124Z,25.90
2022-10-02T12:58:11.249Z,25.90
2022-10-02T13:00:20.385Z,25.90
2022-10-02T13:03:01.662Z,25.90
2022-10-02T13:05:39.816Z,25.90
2022-10-02T13:08:17.273Z,25.80
2022-10-02T13:10:28.032Z,25.80
2022-10-02T13:12:52.517Z,25.80
2022-10-02T13:15:38.254Z,25.80
2022-10-02T13:17:51.715Z,25.80
2022-10-02T13:20:07.345Z,25.70
2022-10-02T13:22:19.824Z,25.70
2022-10-02T13:24:48.744Z,25.70
2022-10-02T13:27:03.419Z,25.80
2022-10-02T13:29:38.107Z,25.80
2022-10-02T13:32:14.457Z,25.80
2022-10-02T13:34:41.078Z,25.80
2022-10-02T13:37:01.282Z,25.80
2022-10-02T13:39:30.335Z,25.80
2022-10-02T13:41:50.871Z,25.80
2022-10-02T13:44:09.685Z,25.80
2022-10-02T13:46:29.437Z,25.80
2022-10-02T13:48:55.946Z,25.80
2022-10-02T13:51:08.084Z,25.80
2022-10-02T13:53:49.279Z,25.90
2022-10-02T13:56:00.525Z,25.80
2022-10-02T13:58:26.065Z,25.90
2022-10-02T14:00:53.394Z,25.90
2022-10-02T14:03:10.061Z,25.90
2022-10-02T14:05:29.435Z,25.90
2022-10-02T14:07:50.925Z,25.90
2022-10-02T14:10:05.975Z,25.90
2022-10-02T14:12:31.171Z,25.90
2022-10-02T14:14:59.095Z,25.90
2022-10-02T14:17:19.691Z,25.90
2022-10-02T14:19:39.778Z,25.90
2022-10-02T14:21:58.464Z,25.90
2022-10-02T14:24:22.184Z,25.90
2022-10-02T14:26:36.021Z,25.90
2022-10-02T14:29:35.520Z,25.90
2022-10-02T14:32:07.991Z,25.90
2022-10-02T14:35:02.676Z,25.90
2022-10-02T14:37:45.502Z,25.90
2022-10-02T14:39:53.836Z,25.90
2022-10-02T14:42:26.974Z,25.90
2022-10-02T14:44:52.119Z,25.90
2022-10-02T14:47:25.559Z,25.90
2022-10-02T14:50:15.399Z,25.90
2022-10-02T14:52:44.493Z,25.90
2022-10-02T14:55:16.522Z,25.80
2022-10-02T14:57:48.162Z,25.80
2022-10-02T15:00:18.181Z,25.80
2022-10-02T15:02:52.251Z,25.80
2022-10-02T15:05:08.518Z,25.80
2022-10-02T15:07:16.852Z,25.70
2022-10-02T15:09:30.022Z,25.60
2022-10-02T15:12:11.952Z,25.60
2022-10-02T15:14:28.045Z,25.60
2022-10-02T15:17:02.276Z,25.60
2022-10-02T15:19:18.768Z,25.60
2022-10-02T15:21:31.311Z,25.60
2022-10-02T15:23:47.602Z,25.50
2022-10-02T15:26:11.705Z,25.50
2022-10-02T15:28:36.246Z,25.50
2022-10-02T15:30:48.385Z,25.50
2022-10-02T15:32:59.559Z,25.50
2022-10-02T15:35:27.741Z,25.50
2022-10-02T15:37:44.900Z,25.50
2022-10-02T15:40:20.498Z,25.50
2022-10-02T15:42:50.233Z,25.50
2022-10-02T15:45:14.694Z,25.50
2022-10-02T15:47:40.104Z,25.40
2022-10-02T15:50:03.830Z,25.40
2022-10-02T15:52:18.173Z,25.40
2022-10-02T15:54:51.741Z,25.40
2022-10-02T15:57:22.663Z,25.40
2022-10-02T15:59:55.032Z,25.30
2022-10-02T16:02:18.829Z,25.30
2022-10-02T16:04:35.150Z,25.30
2022-10-02T16:06:58.306Z,25.30
2022-10-02T16:09:19.245Z,25.30
2022-10-02T16:11:58.803Z,25.20
2022-10-02T16:14:11.212Z,25.20
2022-10-02T16:16:33.172Z,25.20
2022-10-02T16:18:56.393Z,25.20
2022-10-02T16:21:28.714Z,25.20
2022-10-02T16:23:57.192Z,25.20
2022-10-02T16:26:29.616Z,25.20
2022-10-02T16:28:55.998Z,25.20
2022-10-02T16:31:31.099Z,25.20
2022-10-02T16:33:53.015Z,25.20
2022-10-02T16:36:30.963Z,25.10
2022-10-02T16:38:51.562Z,25.10
2022-10-02T16:41:01.557Z,25.10
2022-10-02T16:43:40.077Z,25.20
2022-10-02T16:46:00.294Z,25.20
2022-10-02T16:48:15.121Z,25.20
2022-10-02T16:50:28.908Z,25.10
2022-10-02T16:52:43.463Z,25.10
2022-10-02T16:54:54.842Z,25.00
2022-10-02T16:57:07.964Z,25.10
2022-10-02T16:59:19.022Z,25.00
2022-10-02T17:01:33.850Z,25.10
2022-10-02T17:03:47.890Z,25.10
2022-10-02T17:05:59.682Z,25.10
2022-10-02T17:08:10.548Z,25.10
2022-10-02T17:10:27.612Z,25.10
2022-10-02T17:12:43.446Z,25.00
2022-10-02T17:14:57.745Z,25.10
2022-10-02T17:17:08.254Z,25.10
2022-10-02T17:19:31.512Z,25.10
2022-10-02T17:21:49.242Z,25.20
2022-10-02T17:24:18.492Z,25.20
2022-10-02T17:26:35.623Z,25.20
2022-10-02T17:28:51.234Z,25.20
2022-10-02T17:31:36.772Z,25.20
2022-10-02T17:33:51.167Z,25.20
2022-10-02T17:36:08.793Z,25.20
2022-10-02T17:38:45.721Z,25.20
2022-10-02T17:41:00.381Z,25.20
2022-10-02T17:43:18.534Z,25.20
2022-10-02T17:45:39.105Z,25.30
2022-10-02T17:48:02.585Z,25.30
2022-10-02T17:50:38.826Z,25.30
2022-10-02T17:53:10.650Z,25.30
2022-10-02T17:55:54.476Z,25.20
2022-10-02T17:58:14.268Z,25.20
2022-10-02T18:00:25.034Z,25.20
2022-10-02T18:03:05.185Z,25.20
2022-10-02T18:05:27.371Z,25.10
2022-10-02T18:07:55.801Z,25.10
2022-10-02T18:10:15.272Z,25.20
2022-10-02T18:12:40.165Z,25.10
2022-10-02T18:15:11.362Z,25.10
2022-10-02T18:17:27.963Z,25.10
2022-10-02T18:19:49.634Z,25.10
2022-10-02T18:22:18.921Z,25.10
2022-10-02T18:24:41.527Z,25.00
2022-10-02T18:27:09.291Z,25.00
2022-10-02T18:29:31.119Z,25.00
2022-10-02T18:31:56.395Z,25.00
2022-10-02T18:34:28.692Z,24.90
2022-10-02T18:36:51.131Z,24.90
2022-10-02T18:39:14.750Z,24.90
2022-10-02T18:41:42.615Z,24.90
2022-10-02T18:44:01.625Z,24.90
2022-10-02T18:46:18.533Z,25.00
2022-10-02T18:48:45.479Z,24.90
2022-10-02T18:51:08.328Z,24.90
2022-10-02T18:53:40.495Z,24.90
2022-10-02T18:56:04.988Z,24.90
2022-10-02T18:58:30.443Z,25.00
2022-10-02T19:01:03.397Z,24.90
2022-10-02T19:03:30.374Z,24.90
2022-10-02T19:05:42.507Z,24.90
2022-10-02T19:07:55.850Z,24.90
2022-10-02T19:10:29.093Z,24.90
2022-10-02T19:12:36.682Z,25.00
2022-10-02T19:14:47.909Z,24.90
2022-10-02T19:17:02.769Z,25.00
2022-10-02T19:19:25.415Z,24.90
2022-10-02T19:21:32.595Z,24.90
2022-10-02T19:23:42.443Z,24.90
2022-10-02T19:25:51.260Z,24.90
2022-10-02T19:28:00.675Z,24.90
2022-10-02T19:30:24.619Z,24.90
2022-10-02T19:32:34.514Z,24.80
2022-10-02T19:34:43.189Z,24.80
2022-10-02T19:36:53.185Z,24.80
2022-10-02T19:39:04.045Z,24.70
2022-10-02T19:41:13.326Z,24.80
2022-10-02T19:43:27.222Z,24.80
2022-10-02T19:45:37.709Z,24.80
2022-10-02T19:47:48.439Z,24.70
2022-10-02T19:49:57.719Z,24.70
2022-10-02T19:52:05.211Z,24.70
2022-10-02T19:54:18.329Z,24.70
2022-10-02T19:56:30.682Z,24.70
2022-10-02T19:58:42.574Z,24.60
2022-10-02T20:00:52.646Z,24.60
2022-10-02T20:03:02.981Z,24.60
2022-10-02T20:05:17.536Z,24.70
2022-10-02T20:07:27.070Z,24.70
2022-10-02T20:09:39.017Z,24.70
2022-10-02T20:11:48.502Z,24.70
2022-10-02T20:14:01.467Z,24.70
2022-10-02T20:16:34.570Z,24.80
2022-10-02T20:18:42.051Z,24.70
2022-10-02T20:20:50.813Z,24.70
2022-10-02T20:23:02.604Z,24.70
2022-10-02T20:25:14.298Z,24.60
2022-10-02T20:27:27.667Z,24.60
2022-10-02T20:29:46.585Z,24.60
2022-10-02T20:32:00.871Z,24.60
2022-10-02T20:34:12.357Z,24.60
2022-10-02T20:36:22.922Z,24.60
2022-10-02T20:38:34.144Z,24.60
2022-10-02T20:40:44.095Z,24.60
2022-10-02T20:42:59.315Z,24.60
2022-10-02T20:45:06.746Z,24.60
2022-10-02T20:47:45.313Z,24.60
2022-10-02T20:50:13.026Z,24.60
2022-10-02T20:52:50.927Z,24.70
2022-10-02T20:55:03.536Z,24.70
2022-10-02T20:58:01.210Z,24.70
2022-10-02T21:00:16.679Z,24.70
2022-10-02T21:02:44.649Z,24.70
2022-10-02T21:05:22.804Z,24.70
2022-10-02T21:07:51.755Z,24.70
2022-10-02T21:10:41.690Z,24.70
2022-10-02T21:13:07.244Z,24.70
2022-10-02T21:15:53.439Z,24.70
2022-10-02T21:18:24.311Z,24.70
2022-10-02T21:21:02.690Z,24.80
2022-10-02T21:23:47.147Z,24.80
2022-10-02T21:26:14.396Z,24.80
2022-10-02T21:28:57.060Z,24.80
2022-10-02T21:31:15.756Z,24.80
2022-10-02T21:33:25.656Z,24.80
2022-10-02T21:35:45.544Z,24.90
2022-10-02T21:38:15.656Z,24.90
2022-10-02T21:40:55.348Z,24.90
2022-10-02T21:43:29.120Z,24.90
2022-10-02T21:46:28.109Z,24.90
2022-10-02T21:49:15.218Z,24.90
2022-10-02T21:52:08.018Z,24.90
2022-10-02T21:54:53.294Z,24.80
2022-10-02T21:57:45.841Z,24.80
2022-10-02T22:00:14.064Z,24.80
2022-10-02T22:03:02.161Z,24.80
2022-10-02T22:05:38.454Z,24.90
2022-10-02T22:07:51.290Z,24.80
2022-10-02T22:10:05.284Z,24.80
2022-10-02T22:12:39.491Z,24.80
2022-10-02T22:14:54.043Z,24.80
2022-10-02T22:17:15.100Z,24.80
2022-10-02T22:19:37.296Z,24.90
2022-10-02T22:22:08.430Z,24.80
2022-10-02T22:24:32.351Z,24.90
2022-10-02T22:27:01.753Z,24.90
2022-10-02T22:29:16.308Z,24.90
2022-10-02T22:31:45.506Z,24.90
2022-10-02T22:34:06.052Z,24.90
2022-10-02T22:36:33.047Z,24.90
2022-10-02T22:38:41.101Z,24.90
2022-10-02T22:40:53.452Z,24.90
2022-10-02T22:43:07.259Z,24.90
2022-10-02T22:45:23.329Z,24.90
2022-10-02T22:47:37.321Z,24.90
2022-10-02T22:49:49.935Z,24.90
2022-10-02T22:52:03.920Z,24.90
2022-10-02T22:54:23.960Z,24.90
2022-10-02T22:56:35.896Z,25.00
2022-10-02T22:58:50.862Z,25.00
2022-10-02T23:01:03.711Z,25.00
2022-10-02T23:03:20.483Z,24.80
2022-10-02T23:17:53.714Z,24.50
2022-10-02T23:20:05.752Z,24.60
2022-10-02T23:22:13.916Z,24.40
2022-10-02T23:24:29.486Z,24.30
2022-10-02T23:26:40.258Z,24.20
2022-10-02T23:28:55.632Z,24.20
2022-10-02T23:31:15.944Z,24.10
2022-10-02T23:33:28.223Z,24.10
2022-10-02T23:35:41.797Z,24.00
2022-10-02T23:37:54.611Z,24.00
2022-10-02T23:40:15.977Z,23.90
2022-10-02T23:42:29.968Z,23.80
2022-10-02T23:44:42.789Z,23.70
2022-10-02T23:47:04.400Z,23.70
2022-10-02T23:49:15.576Z,23.70
2022-10-02T23:51:30.642Z,23.60
2022-10-02T23:54:18.527Z,23.60
2022-10-02T23:56:45.473Z,23.60
2022-10-02T23:59:14.773Z,23.60
